createdAt,value
2023-01-31T00:04:15.469Z,10.02
2023-01-31T00:09:17.628Z,3.60
2023-01-31T00:14:20.794Z,4.82
2023-01-31T00:19:22.941Z,9.30
2023-01-31T00:24:25.156Z,9.50
2023-01-31T00:29:27.258Z,11.23
2023-01-31T00:34:29.841Z,4.15
2023-01-31T00:39:32.288Z,13.82
2023-01-31T00:44:34.623Z,5.72
2023-01-31T00:49:36.982Z,13.13
2023-01-31T00:54:39.825Z,16.88
2023-01-31T00:59:42.084Z,6.68
2023-01-31T01:04:44.250Z,4.45
2023-01-31T01:09:47.590Z,7.38
2023-01-31T01:14:49.935Z,11.93
2023-01-31T01:19:52.142Z,11.43
2023-01-31T01:24:54.259Z,6.63
2023-01-31T01:29:56.399Z,9.55
2023-01-31T01:34:59.150Z,10.30
2023-01-31T01:40:01.276Z,8.60
2023-01-31T01:45:15.841Z,4.97
2023-01-31T01:50:32.840Z,7.65
2023-01-31T01:55:42.002Z,7.55
2023-01-31T02:00:45.633Z,8.80
2023-01-31T02:05:52.043Z,9.52
2023-01-31T02:10:59.848Z,4.78
2023-01-31T02:16:02.025Z,6.90
2023-01-31T02:21:23.922Z,17.60
2023-01-31T02:26:47.968Z,7.65
2023-01-31T02:32:10.713Z,8.20
2023-01-31T02:37:19.941Z,21.63
2023-01-31T02:42:41.207Z,13.30
2023-01-31T02:48:04.930Z,14.43
2023-01-31T02:53:20.318Z,10.70
2023-01-31T02:58:28.009Z,11.27
2023-01-31T03:03:35.069Z,11.20
2023-01-31T03:08:40.147Z,22.88
2023-01-31T03:13:45.817Z,14.63
2023-01-31T03:18:55.521Z,19.13
2023-01-31T03:23:59.483Z,11.77
2023-01-31T03:29:04.095Z,12.48
2023-01-31T03:34:09.618Z,15.65
2023-01-31T03:39:30.835Z,9.75
2023-01-31T03:44:52.082Z,23.67
2023-01-31T03:49:58.642Z,13.93
2023-01-31T03:55:08.384Z,7.57
2023-01-31T04:00:15.782Z,11.38
2023-01-31T04:05:30.600Z,10.07
2023-01-31T04:10:33.413Z,8.55
2023-01-31T04:15:35.631Z,9.50
2023-01-31T04:20:37.778Z,8.60
2023-01-31T04:25:39.938Z,6.85
2023-01-31T04:30:42.083Z,13.88
2023-01-31T04:35:44.235Z,7.63
2023-01-31T04:40:46.413Z,12.82
2023-01-31T04:45:50.222Z,6.00
2023-01-31T04:50:52.505Z,8.02
2023-01-31T04:55:55.251Z,8.23
2023-01-31T05:00:57.559Z,20.27
2023-01-31T05:05:59.834Z,12.73
2023-01-31T05:11:04.448Z,16.50
2023-01-31T05:16:08.679Z,16.75
2023-01-31T05:21:11.506Z,3.95
2023-01-31T05:26:13.621Z,10.18
2023-01-31T05:31:15.859Z,10.55
2023-01-31T05:36:18.059Z,7.13
2023-01-31T05:41:20.167Z,9.23
2023-01-31T05:46:22.557Z,4.60
2023-01-31T05:51:24.845Z,5.30
2023-01-31T05:56:27.080Z,15.00
2023-01-31T06:01:29.974Z,10.90
2023-01-31T06:06:32.178Z,8.35
2023-01-31T06:11:34.430Z,5.13
2023-01-31T06:16:36.815Z,25.05
2023-01-31T06:21:39.379Z,8.68
2023-01-31T06:26:41.556Z,5.32
2023-01-31T06:31:45.352Z,8.70
2023-01-31T06:36:47.651Z,9.38
2023-01-31T06:41:49.832Z,12.73
2023-01-31T06:46:52.009Z,5.90
2023-01-31T06:51:54.405Z,6.80
2023-01-31T06:56:56.592Z,4.38
2023-01-31T07:01:58.744Z,9.35
2023-01-31T07:07:00.879Z,5.60
2023-01-31T07:12:03.242Z,12.13
2023-01-31T07:17:05.392Z,12.70
2023-01-31T07:22:07.582Z,11.38
2023-01-31T07:27:12.122Z,9.15
2023-01-31T07:32:14.355Z,5.75
2023-01-31T07:37:16.838Z,32.72
2023-01-31T07:42:19.063Z,22.42
2023-01-31T07:47:21.327Z,31.23
2023-01-31T07:52:23.556Z,23.05
2023-01-31T07:57:25.704Z,69.22
2023-01-31T08:02:46.706Z,50.08
2023-01-31T08:08:08.872Z,49.28
2023-01-31T08:13:11.901Z,31.13
2023-01-31T08:18:14.126Z,28.38
2023-01-31T08:23:16.306Z,33.30
2023-01-31T08:28:18.461Z,24.58
2023-01-31T08:33:20.552Z,17.48
2023-01-31T08:38:22.907Z,12.60
2023-01-31T08:43:25.325Z,11.77
2023-01-31T08:48:27.430Z,12.23
2023-01-31T08:53:29.688Z,13.85
2023-01-31T08:58:33.998Z,16.65
2023-01-31T09:03:36.340Z,17.05
2023-01-31T09:08:38.438Z,10.50
2023-01-31T09:13:40.537Z,19.83
2023-01-31T09:18:43.324Z,12.65
2023-01-31T09:23:45.809Z,8.85
2023-01-31T09:28:49.230Z,13.80
2023-01-31T09:33:51.364Z,13.98
2023-01-31T09:38:57.275Z,14.77
2023-01-31T09:44:14.965Z,15.82
2023-01-31T09:49:23.542Z,17.98
2023-01-31T09:54:32.018Z,8.03
2023-01-31T09:59:48.978Z,6.10
2023-01-31T10:05:18.796Z,11.75
2023-01-31T10:10:31.268Z,17.90
2023-01-31T10:15:43.686Z,10.20
2023-01-31T10:20:53.425Z,19.20
2023-01-31T10:26:06.699Z,13.27
2023-01-31T10:31:36.275Z,14.73
2023-01-31T10:36:58.280Z,18.15
2023-01-31T10:42:28.181Z,21.20
2023-01-31T10:47:39.392Z,14.05
2023-01-31T10:53:25.777Z,13.02
2023-01-31T10:58:27.968Z,17.85
2023-01-31T11:03:30.157Z,9.07
2023-01-31T11:08:35.496Z,17.23
2023-01-31T11:13:39.084Z,13.38
2023-01-31T11:18:48.468Z,13.90
2023-01-31T11:28:54.187Z,15.20
2023-01-31T11:33:59.092Z,12.18
2023-01-31T11:39:35.256Z,14.57
2023-01-31T11:44:37.452Z,8.43
2023-01-31T11:49:44.216Z,14.07
2023-01-31T11:55:02.133Z,10.77
2023-01-31T12:00:18.586Z,16.67
2023-01-31T12:05:41.508Z,13.73
2023-01-31T12:10:47.166Z,9.18
2023-01-31T12:15:59.940Z,14.55
2023-01-31T12:21:25.268Z,10.98
2023-01-31T12:26:27.487Z,14.73
2023-01-31T12:31:38.440Z,12.52
2023-01-31T12:37:17.009Z,18.75
2023-01-31T12:42:19.171Z,11.83
2023-01-31T12:47:39.488Z,11.77
2023-01-31T12:52:50.576Z,12.73
2023-01-31T12:58:04.873Z,8.93
2023-01-31T13:03:25.115Z,13.38
2023-01-31T13:08:30.283Z,10.18
2023-01-31T13:13:43.855Z,10.02
2023-01-31T13:18:49.078Z,6.75
2023-01-31T13:23:59.777Z,4.57
2023-01-31T13:29:17.536Z,5.07
2023-01-31T13:34:34.954Z,7.18
2023-01-31T13:39:44.213Z,12.20
2023-01-31T13:44:47.795Z,2.03
2023-01-31T13:49:52.378Z,5.43
2023-01-31T13:55:24.297Z,0.47
2023-01-31T14:00:44.544Z,4.75
2023-01-31T14:05:51.245Z,2.85
2023-01-31T14:10:54.929Z,2.20
2023-01-31T14:15:57.961Z,6.13
2023-01-31T14:21:29.467Z,3.40
2023-01-31T14:26:43.773Z,6.25
2023-01-31T14:31:48.183Z,2.67
2023-01-31T14:37:11.385Z,4.72
2023-01-31T14:42:49.763Z,8.43
2023-01-31T14:48:38.384Z,6.23
2023-01-31T14:54:12.458Z,3.95
2023-01-31T14:59:26.064Z,7.85
2023-01-31T15:04:29.157Z,4.95
2023-01-31T15:09:39.369Z,5.68
2023-01-31T15:14:49.273Z,3.78
2023-01-31T15:20:03.271Z,12.68
2023-01-31T15:25:21.356Z,9.32
2023-01-31T15:30:24.714Z,4.78
2023-01-31T15:35:52.397Z,8.73
2023-01-31T15:41:18.877Z,3.75
2023-01-31T15:46:33.424Z,4.10
2023-01-31T15:51:35.622Z,7.18
2023-01-31T15:56:40.609Z,4.95
2023-01-31T16:01:51.185Z,8.50
2023-01-31T16:06:53.606Z,3.80
2023-01-31T16:12:00.787Z,5.35
2023-01-31T16:17:03.103Z,9.82
2023-01-31T16:22:31.619Z,4.30
2023-01-31T16:27:38.301Z,3.33
2023-01-31T16:32:42.118Z,6.38
2023-01-31T16:37:44.866Z,1.65
2023-01-31T16:42:47.761Z,5.13
2023-01-31T16:47:52.697Z,7.30
2023-01-31T16:53:33.173Z,4.18
2023-01-31T16:58:57.681Z,7.97
2023-01-31T17:04:20.339Z,8.65
2023-01-31T17:09:23.183Z,10.98
2023-01-31T17:14:26.374Z,2.50
2023-01-31T17:19:31.258Z,6.25
2023-01-31T17:24:33.444Z,6.47
2023-01-31T17:29:35.565Z,5.55
2023-01-31T17:34:37.675Z,6.25
2023-01-31T17:39:41.132Z,12.10
2023-01-31T17:44:43.263Z,5.07
2023-01-31T17:49:45.446Z,15.18
2023-01-31T17:54:47.687Z,14.13
2023-01-31T17:59:50.016Z,6.78
2023-01-31T18:04:52.267Z,13.00
2023-01-31T18:09:54.687Z,10.27
2023-01-31T18:14:57.040Z,12.93
2023-01-31T18:19:59.352Z,24.65
2023-01-31T18:25:01.471Z,12.65
2023-01-31T18:30:05.668Z,24.50
2023-01-31T18:35:08.223Z,27.05
2023-01-31T18:40:11.183Z,21.98
2023-01-31T18:45:13.503Z,20.92
2023-01-31T18:50:15.865Z,20.88
2023-01-31T18:55:18.230Z,29.88
2023-01-31T19:00:21.103Z,31.63
2023-01-31T19:05:23.915Z,34.58
2023-01-31T19:10:26.436Z,33.88
2023-01-31T19:15:28.717Z,56.70
2023-01-31T19:20:30.911Z,29.98
2023-01-31T19:25:33.053Z,18.00
2023-01-31T19:30:35.392Z,31.05
2023-01-31T19:35:37.595Z,24.92
2023-01-31T19:40:41.486Z,19.92
2023-01-31T19:45:43.745Z,15.77
2023-01-31T19:50:45.986Z,34.53
2023-01-31T19:55:53.981Z,14.75
2023-01-31T20:00:56.259Z,24.52
2023-01-31T20:06:04.479Z,21.92
2023-01-31T20:11:08.779Z,18.17
2023-01-31T20:16:13.340Z,24.02
2023-01-31T20:21:20.798Z,31.73
2023-01-31T20:26:24.487Z,13.23
2023-01-31T20:31:27.160Z,17.20
2023-01-31T20:36:29.351Z,29.25
2023-01-31T20:41:31.569Z,24.73
2023-01-31T20:46:33.733Z,21.25
2023-01-31T20:51:35.862Z,24.83
2023-01-31T20:56:39.038Z,16.35
2023-01-31T21:01:43.196Z,16.63
2023-01-31T21:06:45.538Z,19.02
2023-01-31T21:11:47.887Z,22.90
2023-01-31T21:16:50.034Z,17.95
2023-01-31T21:21:52.842Z,15.48
2023-01-31T21:26:55.037Z,16.58
2023-01-31T21:31:57.223Z,7.53
2023-01-31T21:36:59.474Z,19.52
2023-01-31T21:42:16.722Z,21.33
2023-01-31T21:47:18.839Z,16.63
2023-01-31T21:52:20.913Z,23.35
2023-01-31T21:57:22.963Z,28.92
2023-01-31T22:02:25.189Z,24.70
2023-01-31T22:07:27.451Z,22.55
2023-01-31T22:12:30.865Z,16.67
2023-01-31T22:17:32.970Z,27.75
2023-01-31T22:22:35.097Z,15.70
2023-01-31T22:27:37.255Z,15.75
2023-01-31T22:32:39.416Z,14.07
2023-01-31T22:37:42.386Z,13.32
2023-01-31T22:42:44.698Z,15.13
2023-01-31T22:47:46.859Z,21.20
2023-01-31T22:52:49.067Z,12.55
2023-01-31T22:57:51.214Z,24.13
2023-01-31T23:02:53.326Z,22.20
2023-01-31T23:07:56.912Z,15.60
2023-01-31T23:12:59.307Z,7.53
2023-01-31T23:18:02.106Z,18.30
2023-01-31T23:23:04.333Z,11.25
2023-01-31T23:28:06.941Z,15.18
2023-01-31T23:33:09.045Z,6.82
2023-01-31T23:38:11.293Z,8.65
2023-01-31T23:43:13.424Z,11.13
2023-01-31T23:48:16.320Z,18.30
2023-01-31T23:53:18.591Z,14.73
2023-01-31T23:58:20.781Z,10.45
